sensor_id;sensor_type;location;lat;lon;timestamp;pressure;altitude;pressure_sealevel;temperature;humidity
6694;BME280;3384;42.628;23.380;2023-01-27T00:00:42;93318.75;;;3.99;100.00
6694;BME280;3384;42.628;23.380;2023-01-27T00:03:11;93318.09;;;4.49;100.00
6694;BME280;3384;42.628;23.380;2023-01-27T00:05:39;93320.78;;;4.86;100.00
6694;BME280;3384;42.628;23.380;2023-01-27T00:08:06;93318.31;;;4.34;100.00
6694;BME280;3384;42.628;23.380;2023-01-27T00:10:33;93300.78;;;2.81;100.00
6694;BME280;3384;42.628;23.380;2023-01-27T00:13:00;93296.72;;;2.89;100.00
6694;BME280;3384;42.628;23.380;2023-01-27T00:15:44;93295.56;;;2.66;100.00
6694;BME280;3384;42.628;23.380;2023-01-27T00:18:11;93290.53;;;2.70;100.00
6694;BME280;3384;42.628;23.380;2023-01-27T00:20:39;93282.94;;;2.58;100.00
6694;BME280;3384;42.628;23.380;2023-01-27T00:23:25;93274.38;;;3.05;100.00
6694;BME280;3384;42.628;23.380;2023-01-27T00:26:09;93271.78;;;2.66;100.00
6694;BME280;3384;42.628;23.380;2023-01-27T00:28:37;93277.84;;;2.67;100.00
6694;BME280;3384;42.628;23.380;2023-01-27T00:31:06;93284.66;;;2.78;100.00
6694;BME280;3384;42.628;23.380;2023-01-27T00:33:51;93275.09;;;2.82;100.00
6694;BME280;3384;42.628;23.380;2023-01-27T00:36:20;93274.03;;;2.83;100.00
6694;BME280;3384;42.628;23.380;2023-01-27T00:38:47;93278.13;;;2.70;100.00
6694;BME280;3384;42.628;23.380;2023-01-27T00:41:14;93273.03;;;2.74;100.00
6694;BME280;3384;42.628;23.380;2023-01-27T00:43:52;93270.66;;;2.77;100.00
6694;BME280;3384;42.628;23.380;2023-01-27T00:46:20;93276.16;;;2.81;100.00
6694;BME280;3384;42.628;23.380;2023-01-27T00:48:47;93288.22;;;2.58;100.00
6694;BME280;3384;42.628;23.380;2023-01-27T00:51:14;93286.00;;;2.75;100.00
6694;BME280;3384;42.628;23.380;2023-01-27T00:53:43;93290.72;;;1.91;100.00
6694;BME280;3384;42.628;23.380;2023-01-27T00:56:10;93282.28;;;1.89;100.00
6694;BME280;3384;42.628;23.380;2023-01-27T00:58:40;93269.25;;;2.08;100.00
6694;BME280;3384;42.628;23.380;2023-01-27T01:01:10;93279.41;;;4.06;100.00
6694;BME280;3384;42.628;23.380;2023-01-27T01:03:37;93285.25;;;3.61;100.00
6694;BME280;3384;42.628;23.380;2023-01-27T01:06:09;93287.78;;;4.36;100.00
6694;BME280;3384;42.628;23.380;2023-01-27T01:08:36;93287.63;;;4.28;100.00
6694;BME280;3384;42.628;23.380;2023-01-27T01:11:08;93285.03;;;4.41;100.00
6694;BME280;3384;42.628;23.380;2023-01-27T01:13:35;93293.09;;;4.55;100.00
6694;BME280;3384;42.628;23.380;2023-01-27T01:16:05;93286.69;;;4.37;100.00
6694;BME280;3384;42.628;23.380;2023-01-27T01:18:33;93285.59;;;4.20;100.00
6694;BME280;3384;42.628;23.380;2023-01-27T01:21:00;93310.22;;;4.44;100.00
6694;BME280;3384;42.628;23.380;2023-01-27T01:23:27;93292.13;;;4.46;100.00
6694;BME280;3384;42.628;23.380;2023-01-27T01:25:54;93278.53;;;4.34;100.00
6694;BME280;3384;42.628;23.380;2023-01-27T01:28:24;93279.47;;;4.61;100.00
6694;BME280;3384;42.628;23.380;2023-01-27T01:30:51;93288.22;;;3.78;100.00
6694;BME280;3384;42.628;23.380;2023-01-27T01:33:18;93287.78;;;3.94;100.00
6694;BME280;3384;42.628;23.380;2023-01-27T01:35:44;93292.69;;;4.06;100.00
6694;BME280;3384;42.628;23.380;2023-01-27T01:38:12;93312.34;;;4.00;100.00
6694;BME280;3384;42.628;23.380;2023-01-27T01:40:39;93314.94;;;4.05;100.00
6694;BME280;3384;42.628;23.380;2023-01-27T01:43:12;93294.53;;;3.82;100.00
6694;BME280;3384;42.628;23.380;2023-01-27T01:45:47;93301.34;;;3.88;100.00
6694;BME280;3384;42.628;23.380;2023-01-27T01:48:17;93297.38;;;4.09;100.00
6694;BME280;3384;42.628;23.380;2023-01-27T01:50:49;93280.47;;;4.05;100.00
6694;BME280;3384;42.628;23.380;2023-01-27T01:53:18;93282.91;;;3.54;100.00
6694;BME280;3384;42.628;23.380;2023-01-27T01:55:47;93283.72;;;3.55;100.00
6694;BME280;3384;42.628;23.380;2023-01-27T01:58:14;93272.13;;;4.16;100.00
6694;BME280;3384;42.628;23.380;2023-01-27T02:00:42;93264.66;;;4.00;100.00
6694;BME280;3384;42.628;23.380;2023-01-27T02:03:10;93254.06;;;4.18;100.00
6694;BME280;3384;42.628;23.380;2023-01-27T02:05:40;93261.16;;;4.04;100.00
6694;BME280;3384;42.628;23.380;2023-01-27T02:08:12;93253.84;;;4.15;100.00
6694;BME280;3384;42.628;23.380;2023-01-27T02:10:41;93242.59;;;4.04;100.00
6694;BME280;3384;42.628;23.380;2023-01-27T02:13:08;93239.25;;;3.94;100.00
6694;BME280;3384;42.628;23.380;2023-01-27T02:15:35;93235.66;;;4.27;100.00
6694;BME280;3384;42.628;23.380;2023-01-27T02:18:03;93228.75;;;3.89;100.00
6694;BME280;3384;42.628;23.380;2023-01-27T02:20:38;93228.66;;;4.68;100.00
6694;BME280;3384;42.628;23.380;2023-01-27T02:23:12;93231.34;;;4.12;100.00
6694;BME280;3384;42.628;23.380;2023-01-27T02:25:50;93232.28;;;4.40;100.00
6694;BME280;3384;42.628;23.380;2023-01-27T02:28:20;93233.44;;;4.34;100.00
6694;BME280;3384;42.628;23.380;2023-01-27T02:30:47;93224.63;;;4.20;100.00
6694;BME280;3384;42.628;23.380;2023-01-27T02:33:14;93229.28;;;4.28;100.00
6694;BME280;3384;42.628;23.380;2023-01-27T02:35:47;93220.66;;;3.99;100.00
6694;BME280;3384;42.628;23.380;2023-01-27T02:38:17;93225.66;;;3.35;100.00
6694;BME280;3384;42.628;23.380;2023-01-27T02:40:51;93220.91;;;3.79;100.00
6694;BME280;3384;42.628;23.380;2023-01-27T02:43:20;93226.44;;;4.01;100.00
6694;BME280;3384;42.628;23.380;2023-01-27T02:45:47;93233.38;;;3.03;100.00
6694;BME280;3384;42.628;23.380;2023-01-27T02:48:14;93246.06;;;2.72;100.00
6694;BME280;3384;42.628;23.380;2023-01-27T02:50:41;93238.00;;;3.44;100.00
6694;BME280;3384;42.628;23.380;2023-01-27T02:53:07;93237.41;;;3.94;100.00
6694;BME280;3384;42.628;23.380;2023-01-27T02:55:34;93248.09;;;3.66;100.00
6694;BME280;3384;42.628;23.380;2023-01-27T02:58:05;93231.63;;;3.69;100.00
6694;BME280;3384;42.628;23.380;2023-01-27T03:00:33;93230.13;;;3.11;100.00
6694;BME280;3384;42.628;23.380;2023-01-27T03:03:00;93221.63;;;3.14;100.00
6694;BME280;3384;42.628;23.380;2023-01-27T03:05:27;93225.84;;;3.15;100.00
6694;BME280;3384;42.628;23.380;2023-01-27T03:07:54;93217.53;;;3.26;100.00
6694;BME280;3384;42.628;23.380;2023-01-27T03:10:21;93226.13;;;3.13;100.00
6694;BME280;3384;42.628;23.380;2023-01-27T03:12:47;93211.28;;;3.41;100.00
6694;BME280;3384;42.628;23.380;2023-01-27T03:15:16;93208.06;;;3.20;100.00
6694;BME280;3384;42.628;23.380;2023-01-27T03:18:04;93206.03;;;3.83;100.00
6694;BME280;3384;42.628;23.380;2023-01-27T03:20:38;93198.94;;;3.55;100.00
6694;BME280;3384;42.628;23.380;2023-01-27T03:23:05;93199.19;;;3.77;100.00
6694;BME280;3384;42.628;23.380;2023-01-27T03:25:32;93210.13;;;3.94;100.00
6694;BME280;3384;42.628;23.380;2023-01-27T03:27:59;93193.53;;;3.41;100.00
6694;BME280;3384;42.628;23.380;2023-01-27T03:30:28;93188.19;;;3.88;100.00
6694;BME280;3384;42.628;23.380;2023-01-27T03:32:54;93187.91;;;3.90;100.00
6694;BME280;3384;42.628;23.380;2023-01-27T03:35:21;93180.34;;;3.60;100.00
6694;BME280;3384;42.628;23.380;2023-01-27T03:37:49;93179.78;;;3.63;100.00
6694;BME280;3384;42.628;23.380;2023-01-27T03:40:33;93158.38;;;3.59;100.00
6694;BME280;3384;42.628;23.380;2023-01-27T03:43:17;93157.47;;;4.06;100.00
6694;BME280;3384;42.628;23.380;2023-01-27T03:46:02;93155.38;;;3.66;100.00
6694;BME280;3384;42.628;23.380;2023-01-27T03:48:47;93158.94;;;3.56;100.00
6694;BME280;3384;42.628;23.380;2023-01-27T03:51:16;93159.25;;;3.73;100.00
6694;BME280;3384;42.628;23.380;2023-01-27T03:53:43;93164.22;;;3.56;100.00
6694;BME280;3384;42.628;23.380;2023-01-27T03:56:10;93148.88;;;3.35;100.00
6694;BME280;3384;42.628;23.380;2023-01-27T03:58:37;93152.81;;;3.37;100.00
6694;BME280;3384;42.628;23.380;2023-01-27T04:01:10;93155.41;;;3.42;100.00
6694;BME280;3384;42.628;23.380;2023-01-27T04:03:37;93174.00;;;3.61;100.00
6694;BME280;3384;42.628;23.380;2023-01-27T04:06:23;93194.91;;;3.81;100.00
6694;BME280;3384;42.628;23.380;2023-01-27T04:09:09;93209.75;;;3.58;100.00
6694;BME280;3384;42.628;23.380;2023-01-27T04:11:36;93226.25;;;3.97;100.00
6694;BME280;3384;42.628;23.380;2023-01-27T04:14:25;93238.50;;;4.12;100.00
6694;BME280;3384;42.628;23.380;2023-01-27T04:16:57;93234.97;;;3.98;100.00
6694;BME280;3384;42.628;23.380;2023-01-27T04:19:24;93230.19;;;4.00;100.00
6694;BME280;3384;42.628;23.380;2023-01-27T04:21:52;93224.28;;;3.14;100.00
6694;BME280;3384;42.628;23.380;2023-01-27T04:24:19;93223.31;;;3.75;100.00
6694;BME280;3384;42.628;23.380;2023-01-27T04:26:55;93234.06;;;3.42;100.00
6694;BME280;3384;42.628;23.380;2023-01-27T04:29:24;93241.09;;;3.28;100.00
6694;BME280;3384;42.628;23.380;2023-01-27T04:31:51;93254.41;;;3.70;100.00
6694;BME280;3384;42.628;23.380;2023-01-27T04:34:20;93253.56;;;3.51;100.00
6694;BME280;3384;42.628;23.380;2023-01-27T04:36:47;93242.16;;;3.74;100.00
6694;BME280;3384;42.628;23.380;2023-01-27T04:39:14;93246.22;;;3.90;100.00
6694;BME280;3384;42.628;23.380;2023-01-27T04:41:41;93254.25;;;3.85;100.00
6694;BME280;3384;42.628;23.380;2023-01-27T04:44:08;93245.47;;;3.14;100.00
6694;BME280;3384;42.628;23.380;2023-01-27T04:46:36;93246.38;;;3.28;100.00
6694;BME280;3384;42.628;23.380;2023-01-27T04:49:03;93246.69;;;4.15;100.00
6694;BME280;3384;42.628;23.380;2023-01-27T04:51:32;93251.19;;;3.73;100.00
6694;BME280;3384;42.628;23.380;2023-01-27T04:53:59;93256.75;;;3.95;100.00
6694;BME280;3384;42.628;23.380;2023-01-27T04:56:30;93255.72;;;3.91;100.00
6694;BME280;3384;42.628;23.380;2023-01-27T04:58:58;93258.78;;;3.32;100.00
6694;BME280;3384;42.628;23.380;2023-01-27T05:01:26;93261.41;;;3.61;100.00
6694;BME280;3384;42.628;23.380;2023-01-27T05:03:52;93263.56;;;4.01;100.00
6694;BME280;3384;42.628;23.380;2023-01-27T05:06:20;93262.69;;;3.87;100.00
6694;BME280;3384;42.628;23.380;2023-01-27T05:08:48;93261.78;;;3.73;100.00
6694;BME280;3384;42.628;23.380;2023-01-27T05:11:15;93255.06;;;3.57;100.00
6694;BME280;3384;42.628;23.380;2023-01-27T05:13:43;93245.63;;;3.51;100.00
6694;BME280;3384;42.628;23.380;2023-01-27T05:16:12;93247.97;;;3.76;100.00
6694;BME280;3384;42.628;23.380;2023-01-27T05:18:40;93246.84;;;3.82;100.00
6694;BME280;3384;42.628;23.380;2023-01-27T05:21:08;93250.63;;;3.52;100.00
6694;BME280;3384;42.628;23.380;2023-01-27T05:23:37;93236.13;;;3.45;100.00
6694;BME280;3384;42.628;23.380;2023-01-27T05:26:07;93225.59;;;3.40;100.00
6694;BME280;3384;42.628;23.380;2023-01-27T05:28:36;93223.97;;;3.67;100.00
6694;BME280;3384;42.628;23.380;2023-01-27T05:31:06;93222.38;;;3.19;100.00
6694;BME280;3384;42.628;23.380;2023-01-27T05:33:33;93232.41;;;3.46;100.00
6694;BME280;3384;42.628;23.380;2023-01-27T05:36:02;93232.41;;;3.46;100.00
6694;BME280;3384;42.628;23.380;2023-01-27T05:38:29;93233.28;;;3.65;100.00
6694;BME280;3384;42.628;23.380;2023-01-27T05:40:58;93219.31;;;4.01;100.00
6694;BME280;3384;42.628;23.380;2023-01-27T05:43:28;93215.16;;;3.72;100.00
6694;BME280;3384;42.628;23.380;2023-01-27T05:46:03;93216.84;;;4.05;100.00
6694;BME280;3384;42.628;23.380;2023-01-27T05:48:32;93215.91;;;3.54;100.00
6694;BME280;3384;42.628;23.380;2023-01-27T05:50:58;93232.09;;;3.52;100.00
6694;BME280;3384;42.628;23.380;2023-01-27T05:53:25;93224.66;;;3.02;100.00
6694;BME280;3384;42.628;23.380;2023-01-27T05:55:52;93232.69;;;3.44;100.00
6694;BME280;3384;42.628;23.380;2023-01-27T05:58:20;93244.28;;;3.95;100.00
6694;BME280;3384;42.628;23.380;2023-01-27T06:00:48;93236.84;;;3.74;100.00
6694;BME280;3384;42.628;23.380;2023-01-27T06:03:15;93236.06;;;2.97;100.00
6694;BME280;3384;42.628;23.380;2023-01-27T06:05:52;93229.44;;;3.00;100.00
6694;BME280;3384;42.628;23.380;2023-01-27T06:08:20;93226.81;;;3.24;100.00
6694;BME280;3384;42.628;23.380;2023-01-27T06:10:47;93227.91;;;3.23;100.00
6694;BME280;3384;42.628;23.380;2023-01-27T06:13:14;93231.72;;;3.82;100.00
6694;BME280;3384;42.628;23.380;2023-01-27T06:15:41;93231.75;;;4.01;100.00
6694;BME280;3384;42.628;23.380;2023-01-27T06:18:10;93240.19;;;3.84;100.00
6694;BME280;3384;42.628;23.380;2023-01-27T06:20:37;93244.94;;;4.24;100.00
6694;BME280;3384;42.628;23.380;2023-01-27T06:23:04;93244.19;;;4.24;100.00
6694;BME280;3384;42.628;23.380;2023-01-27T06:25:35;93249.56;;;4.37;100.00
6694;BME280;3384;42.628;23.380;2023-01-27T06:28:02;93250.53;;;4.04;100.00
6694;BME280;3384;42.628;23.380;2023-01-27T06:30:29;93245.16;;;4.09;100.00
6694;BME280;3384;42.628;23.380;2023-01-27T06:32:56;93242.50;;;3.67;100.00
6694;BME280;3384;42.628;23.380;2023-01-27T06:35:24;93243.22;;;3.96;100.00
6694;BME280;3384;42.628;23.380;2023-01-27T06:37:51;93239.88;;;4.09;100.00
6694;BME280;3384;42.628;23.380;2023-01-27T06:40:18;93244.69;;;3.84;100.00
6694;BME280;3384;42.628;23.380;2023-01-27T06:42:46;93245.69;;;4.11;100.00
6694;BME280;3384;42.628;23.380;2023-01-27T06:45:16;93253.63;;;4.67;100.00
6694;BME280;3384;42.628;23.380;2023-01-27T06:47:42;93256.84;;;4.45;100.00
6694;BME280;3384;42.628;23.380;2023-01-27T06:50:10;93258.22;;;5.12;100.00
6694;BME280;3384;42.628;23.380;2023-01-27T06:52:39;93258.72;;;4.26;100.00
6694;BME280;3384;42.628;23.380;2023-01-27T06:55:06;93263.06;;;3.28;100.00
6694;BME280;3384;42.628;23.380;2023-01-27T06:57:33;93272.28;;;4.25;100.00
6694;BME280;3384;42.628;23.380;2023-01-27T06:59:59;93276.31;;;4.41;100.00
6694;BME280;3384;42.628;23.380;2023-01-27T07:02:26;93282.03;;;3.87;100.00
6694;BME280;3384;42.628;23.380;2023-01-27T07:04:54;93278.00;;;3.90;100.00
6694;BME280;3384;42.628;23.380;2023-01-27T07:07:21;93281.34;;;4.19;100.00
6694;BME280;3384;42.628;23.380;2023-01-27T07:09:50;93282.28;;;4.09;100.00
6694;BME280;3384;42.628;23.380;2023-01-27T07:12:17;93285.16;;;4.13;100.00
6694;BME280;3384;42.628;23.380;2023-01-27T07:14:47;93266.31;;;4.70;100.00
6694;BME280;3384;42.628;23.380;2023-01-27T07:17:16;93277.28;;;4.26;100.00
6694;BME280;3384;42.628;23.380;2023-01-27T07:19:43;93261.16;;;3.34;100.00
6694;BME280;3384;42.628;23.380;2023-01-27T07:22:10;93266.56;;;3.71;100.00
6694;BME280;3384;42.628;23.380;2023-01-27T07:24:37;93256.25;;;3.93;100.00
6694;BME280;3384;42.628;23.380;2023-01-27T07:27:09;93268.66;;;4.16;100.00
6694;BME280;3384;42.628;23.380;2023-01-27T07:29:36;93266.13;;;3.87;100.00
6694;BME280;3384;42.628;23.380;2023-01-27T07:32:06;93276.66;;;4.34;100.00
6694;BME280;3384;42.628;23.380;2023-01-27T07:34:32;93269.47;;;4.16;100.00
6694;BME280;3384;42.628;23.380;2023-01-27T07:36:59;93281.91;;;4.16;100.00
6694;BME280;3384;42.628;23.380;2023-01-27T07:39:26;93260.19;;;3.95;100.00
6694;BME280;3384;42.628;23.380;2023-01-27T07:41:53;93272.59;;;4.00;100.00
6694;BME280;3384;42.628;23.380;2023-01-27T07:44:25;93288.34;;;3.91;100.00
6694;BME280;3384;42.628;23.380;2023-01-27T07:46:52;93282.06;;;4.24;100.00
6694;BME280;3384;42.628;23.380;2023-01-27T07:49:19;93283.13;;;4.05;100.00
6694;BME280;3384;42.628;23.380;2023-01-27T07:51:46;93272.78;;;4.64;100.00
6694;BME280;3384;42.628;23.380;2023-01-27T07:54:16;93273.75;;;4.12;100.00
6694;BME280;3384;42.628;23.380;2023-01-27T07:56:44;93274.09;;;4.66;100.00
6694;BME280;3384;42.628;23.380;2023-01-27T07:59:11;93287.84;;;4.50;100.00
6694;BME280;3384;42.628;23.380;2023-01-27T08:01:40;93274.53;;;4.55;100.00
6694;BME280;3384;42.628;23.380;2023-01-27T08:04:07;93279.34;;;4.85;100.00
6694;BME280;3384;42.628;23.380;2023-01-27T08:06:36;93277.59;;;4.62;100.00
6694;BME280;3384;42.628;23.380;2023-01-27T08:09:06;93289.13;;;4.34;100.00
6694;BME280;3384;42.628;23.380;2023-01-27T08:11:33;93297.53;;;4.41;100.00
6694;BME280;3384;42.628;23.380;2023-01-27T08:14:00;93270.91;;;4.83;100.00
6694;BME280;3384;42.628;23.380;2023-01-27T08:16:28;93288.84;;;4.91;100.00
6694;BME280;3384;42.628;23.380;2023-01-27T08:18:57;93252.47;;;3.99;100.00
6694;BME280;3384;42.628;23.380;2023-01-27T08:21:24;93274.13;;;4.43;100.00
6694;BME280;3384;42.628;23.380;2023-01-27T08:23:56;93293.72;;;4.47;100.00
6694;BME280;3384;42.628;23.380;2023-01-27T08:26:24;93296.34;;;5.02;100.00
6694;BME280;3384;42.628;23.380;2023-01-27T08:29:19;93281.53;;;5.15;100.00
6694;BME280;3384;42.628;23.380;2023-01-27T08:31:57;93291.16;;;4.60;100.00
6694;BME280;3384;42.628;23.380;2023-01-27T08:34:25;93294.22;;;4.49;100.00
6694;BME280;3384;42.628;23.380;2023-01-27T08:36:53;93278.97;;;4.41;100.00
6694;BME280;3384;42.628;23.380;2023-01-27T08:39:22;93293.47;;;3.83;100.00
6694;BME280;3384;42.628;23.380;2023-01-27T08:41:51;93295.88;;;3.79;100.00
6694;BME280;3384;42.628;23.380;2023-01-27T08:44:22;93309.50;;;4.15;100.00
6694;BME280;3384;42.628;23.380;2023-01-27T08:46:49;93301.69;;;4.84;100.00
6694;BME280;3384;42.628;23.380;2023-01-27T08:49:16;93303.66;;;4.18;100.00
6694;BME280;3384;42.628;23.380;2023-01-27T08:51:45;93291.38;;;3.80;100.00
6694;BME280;3384;42.628;23.380;2023-01-27T08:54:12;93303.25;;;4.29;100.00
6694;BME280;3384;42.628;23.380;2023-01-27T08:56:39;93285.78;;;4.05;100.00
6694;BME280;3384;42.628;23.380;2023-01-27T08:59:06;93284.47;;;4.63;100.00
6694;BME280;3384;42.628;23.380;2023-01-27T09:01:33;93279.75;;;4.60;100.00
6694;BME280;3384;42.628;23.380;2023-01-27T09:04:00;93297.34;;;4.14;100.00
6694;BME280;3384;42.628;23.380;2023-01-27T09:06:27;93304.47;;;4.55;100.00
6694;BME280;3384;42.628;23.380;2023-01-27T09:08:56;93289.88;;;4.16;100.00
6694;BME280;3384;42.628;23.380;2023-01-27T09:11:34;93299.25;;;4.69;100.00
6694;BME280;3384;42.628;23.380;2023-01-27T09:14:02;93294.16;;;4.12;100.00
6694;BME280;3384;42.628;23.380;2023-01-27T09:16:29;93295.47;;;3.91;100.00
6694;BME280;3384;42.628;23.380;2023-01-27T09:18:56;93286.91;;;4.41;100.00
6694;BME280;3384;42.628;23.380;2023-01-27T09:21:32;93290.69;;;4.35;100.00
6694;BME280;3384;42.628;23.380;2023-01-27T09:24:01;93270.13;;;4.64;100.00
6694;BME280;3384;42.628;23.380;2023-01-27T09:26:28;93285.13;;;4.36;100.00
6694;BME280;3384;42.628;23.380;2023-01-27T09:28:55;93309.28;;;4.53;100.00
6694;BME280;3384;42.628;23.380;2023-01-27T09:31:22;93265.94;;;4.95;100.00
6694;BME280;3384;42.628;23.380;2023-01-27T09:33:49;93268.25;;;4.27;100.00
6694;BME280;3384;42.628;23.380;2023-01-27T09:36:18;93274.22;;;4.38;100.00
6694;BME280;3384;42.628;23.380;2023-01-27T09:38:51;93259.59;;;4.40;100.00
6694;BME280;3384;42.628;23.380;2023-01-27T09:44:22;93253.91;;;4.47;100.00
6694;BME280;3384;42.628;23.380;2023-01-27T09:47:00;93254.50;;;3.60;100.00
6694;BME280;3384;42.628;23.380;2023-01-27T09:49:47;93236.38;;;4.14;100.00
6694;BME280;3384;42.628;23.380;2023-01-27T09:52:41;93244.44;;;4.04;100.00
6694;BME280;3384;42.628;23.380;2023-01-27T09:55:18;93241.72;;;4.64;100.00
6694;BME280;3384;42.628;23.380;2023-01-27T09:57:56;93224.41;;;4.53;100.00
6694;BME280;3384;42.628;23.380;2023-01-27T10:00:36;93234.00;;;4.49;100.00
6694;BME280;3384;42.628;23.380;2023-01-27T10:03:27;93232.00;;;4.04;100.00
6694;BME280;3384;42.628;23.380;2023-01-27T10:09:23;93219.13;;;4.67;100.00
6694;BME280;3384;42.628;23.380;2023-01-27T10:12:04;93212.00;;;4.12;100.00
6694;BME280;3384;42.628;23.380;2023-01-27T10:14:43;93233.88;;;4.41;100.00
6694;BME280;3384;42.628;23.380;2023-01-27T10:17:28;93228.59;;;4.17;100.00
6694;BME280;3384;42.628;23.380;2023-01-27T10:20:08;93224.66;;;4.70;100.00
6694;BME280;3384;42.628;23.380;2023-01-27T10:22:48;93219.91;;;4.35;100.00
6694;BME280;3384;42.628;23.380;2023-01-27T10:25:25;93229.56;;;4.26;100.00
6694;BME280;3384;42.628;23.380;2023-01-27T10:27:57;93227.41;;;4.28;100.00
6694;BME280;3384;42.628;23.380;2023-01-27T10:30:32;93218.28;;;4.34;100.00
6694;BME280;3384;42.628;23.380;2023-01-27T10:33:05;93217.72;;;4.56;100.00
6694;BME280;3384;42.628;23.380;2023-01-27T10:35:39;93213.25;;;5.02;100.00
6694;BME280;3384;42.628;23.380;2023-01-27T10:38:13;93224.94;;;3.95;100.00
6694;BME280;3384;42.628;23.380;2023-01-27T10:40:47;93223.25;;;4.22;100.00
6694;BME280;3384;42.628;23.380;2023-01-27T10:43:24;93223.25;;;4.41;100.00
6694;BME280;3384;42.628;23.380;2023-01-27T10:45:59;93213.78;;;4.35;100.00
6694;BME280;3384;42.628;23.380;2023-01-27T10:48:35;93210.75;;;3.62;100.00
6694;BME280;3384;42.628;23.380;2023-01-27T10:51:08;93205.47;;;4.41;100.00
6694;BME280;3384;42.628;23.380;2023-01-27T10:53:46;93215.53;;;3.84;100.00
6694;BME280;3384;42.628;23.380;2023-01-27T10:56:19;93213.41;;;4.60;100.00
6694;BME280;3384;42.628;23.380;2023-01-27T10:58:54;93205.75;;;4.40;100.00
6694;BME280;3384;42.628;23.380;2023-01-27T11:01:29;93221.88;;;4.25;100.00
6694;BME280;3384;42.628;23.380;2023-01-27T11:04:00;93207.66;;;4.71;100.00
6694;BME280;3384;42.628;23.380;2023-01-27T11:06:32;93219.09;;;4.53;100.00
6694;BME280;3384;42.628;23.380;2023-01-27T11:09:06;93211.94;;;4.35;100.00
6694;BME280;3384;42.628;23.380;2023-01-27T11:11:37;93205.25;;;4.19;100.00
6694;BME280;3384;42.628;23.380;2023-01-27T11:14:18;93196.22;;;4.02;100.00
6694;BME280;3384;42.628;23.380;2023-01-27T11:16:52;93181.50;;;3.54;100.00
6694;BME280;3384;42.628;23.380;2023-01-27T11:19:39;93188.72;;;3.90;100.00
6694;BME280;3384;42.628;23.380;2023-01-27T11:22:20;93186.75;;;4.33;100.00
6694;BME280;3384;42.628;23.380;2023-01-27T11:24:52;93188.44;;;3.92;100.00
6694;BME280;3384;42.628;23.380;2023-01-27T11:27:35;93191.63;;;3.23;100.00
6694;BME280;3384;42.628;23.380;2023-01-27T11:30:10;93178.00;;;3.77;100.00
6694;BME280;3384;42.628;23.380;2023-01-27T11:32:49;93188.69;;;4.09;100.00
6694;BME280;3384;42.628;23.380;2023-01-27T11:35:18;93186.09;;;3.85;100.00
6694;BME280;3384;42.628;23.380;2023-01-27T11:37:47;93189.25;;;3.69;100.00
6694;BME280;3384;42.628;23.380;2023-01-27T11:40:17;93183.53;;;3.38;100.00
6694;BME280;3384;42.628;23.380;2023-01-27T11:42:46;93176.84;;;3.17;100.00
6694;BME280;3384;42.628;23.380;2023-01-27T11:45:15;93186.69;;;4.01;100.00
6694;BME280;3384;42.628;23.380;2023-01-27T11:47:44;93172.94;;;4.17;100.00
6694;BME280;3384;42.628;23.380;2023-01-27T11:50:15;93173.00;;;3.94;100.00
6694;BME280;3384;42.628;23.380;2023-01-27T11:52:45;93173.38;;;3.45;100.00
6694;BME280;3384;42.628;23.380;2023-01-27T11:55:16;93174.00;;;4.16;100.00
6694;BME280;3384;42.628;23.380;2023-01-27T11:57:48;93183.69;;;3.89;100.00
6694;BME280;3384;42.628;23.380;2023-01-27T12:00:20;93177.81;;;4.29;100.00
6694;BME280;3384;42.628;23.380;2023-01-27T12:02:57;93171.50;;;3.88;100.00
6694;BME280;3384;42.628;23.380;2023-01-27T12:05:31;93169.00;;;3.96;100.00
6694;BME280;3384;42.628;23.380;2023-01-27T12:08:00;93171.66;;;3.54;100.00
6694;BME280;3384;42.628;23.380;2023-01-27T12:10:29;93178.59;;;3.92;100.00
6694;BME280;3384;42.628;23.380;2023-01-27T12:12:59;93189.56;;;4.04;100.00
6694;BME280;3384;42.628;23.380;2023-01-27T12:15:27;93188.25;;;4.02;100.00
6694;BME280;3384;42.628;23.380;2023-01-27T12:17:59;93178.09;;;3.72;100.00
6694;BME280;3384;42.628;23.380;2023-01-27T12:20:32;93172.81;;;3.90;100.00
6694;BME280;3384;42.628;23.380;2023-01-27T12:23:04;93177.81;;;3.92;100.00
6694;BME280;3384;42.628;23.380;2023-01-27T12:25:42;93178.44;;;3.84;100.00
6694;BME280;3384;42.628;23.380;2023-01-27T12:28:20;93173.72;;;3.99;100.00
6694;BME280;3384;42.628;23.380;2023-01-27T12:30:50;93185.50;;;3.70;100.00
6694;BME280;3384;42.628;23.380;2023-01-27T12:33:23;93186.94;;;4.04;100.00
6694;BME280;3384;42.628;23.380;2023-01-27T12:35:56;93182.81;;;3.75;100.00
6694;BME280;3384;42.628;23.380;2023-01-27T12:38:24;93186.34;;;3.47;100.00
6694;BME280;3384;42.628;23.380;2023-01-27T12:40:57;93177.47;;;3.56;100.00
6694;BME280;3384;42.628;23.380;2023-01-27T12:43:25;93168.69;;;3.14;100.00
6694;BME280;3384;42.628;23.380;2023-01-27T12:46:19;93169.94;;;3.87;100.00
6694;BME280;3384;42.628;23.380;2023-01-27T12:48:49;93174.22;;;3.83;100.00
6694;BME280;3384;42.628;23.380;2023-01-27T12:51:19;93166.91;;;3.93;100.00
6694;BME280;3384;42.628;23.380;2023-01-27T12:53:48;93169.72;;;3.83;100.00
6694;BME280;3384;42.628;23.380;2023-01-27T12:56:17;93164.34;;;4.07;100.00
6694;BME280;3384;42.628;23.380;2023-01-27T12:58:45;93179.03;;;3.99;100.00
6694;BME280;3384;42.628;23.380;2023-01-27T13:01:25;93162.81;;;3.82;100.00
6694;BME280;3384;42.628;23.380;2023-01-27T13:03:56;93170.41;;;3.70;100.00
6694;BME280;3384;42.628;23.380;2023-01-27T13:06:37;93168.38;;;4.04;100.00
6694;BME280;3384;42.628;23.380;2023-01-27T13:09:23;93170.31;;;3.57;100.00
6694;BME280;3384;42.628;23.380;2023-01-27T13:11:51;93168.34;;;3.86;100.00
6694;BME280;3384;42.628;23.380;2023-01-27T13:14:20;93163.34;;;3.19;100.00
6694;BME280;3384;42.628;23.380;2023-01-27T13:16:51;93166.69;;;3.71;100.00
6694;BME280;3384;42.628;23.380;2023-01-27T13:19:21;93176.44;;;3.76;100.00
6694;BME280;3384;42.628;23.380;2023-01-27T13:21:52;93180.66;;;3.77;100.00
6694;BME280;3384;42.628;23.380;2023-01-27T13:24:33;93170.91;;;3.72;100.00
6694;BME280;3384;42.628;23.380;2023-01-27T13:27:03;93172.47;;;3.55;100.00
6694;BME280;3384;42.628;23.380;2023-01-27T13:29:32;93172.19;;;3.56;100.00
6694;BME280;3384;42.628;23.380;2023-01-27T13:32:03;93171.97;;;3.71;100.00
6694;BME280;3384;42.628;23.380;2023-01-27T13:34:38;93168.56;;;3.89;100.00